sensor_id;sensor_type;location;lat;lon;timestamp;temperature;humidity
40630;DHT22;26329;40.388;-3.710;2023-05-19T00:09:32;14.50;35.90
40630;DHT22;26329;40.388;-3.710;2023-05-19T00:19:33;14.30;36.50
40630;DHT22;26329;40.388;-3.710;2023-05-19T00:29:34;14.30;36.90
40630;DHT22;26329;40.388;-3.710;2023-05-19T00:39:34;14.00;37.60
40630;DHT22;26329;40.388;-3.710;2023-05-19T00:49:35;13.90;37.90
40630;DHT22;26329;40.388;-3.710;2023-05-19T00:59:36;13.90;37.90
40630;DHT22;26329;40.388;-3.710;2023-05-19T01:09:37;13.90;38.10
40630;DHT22;26329;40.388;-3.710;2023-05-19T01:19:49;13.70;38.30
40630;DHT22;26329;40.388;-3.710;2023-05-19T01:40:19;13.70;39.00
40630;DHT22;26329;40.388;-3.710;2023-05-19T01:50:21;13.60;39.20
40630;DHT22;26329;40.388;-3.710;2023-05-19T02:10:49;13.40;39.90
40630;DHT22;26329;40.388;-3.710;2023-05-19T02:20:50;13.30;40.20
40630;DHT22;26329;40.388;-3.710;2023-05-19T02:30:51;13.30;40.40
40630;DHT22;26329;40.388;-3.710;2023-05-19T02:40:52;13.30;40.50
40630;DHT22;26329;40.388;-3.710;2023-05-19T02:50:53;13.30;40.40
40630;DHT22;26329;40.388;-3.710;2023-05-19T03:00:54;13.30;40.60
40630;DHT22;26329;40.388;-3.710;2023-05-19T03:10:55;13.20;40.60
40630;DHT22;26329;40.388;-3.710;2023-05-19T03:20:56;13.20;40.40
40630;DHT22;26329;40.388;-3.710;2023-05-19T03:30:56;13.10;40.40
40630;DHT22;26329;40.388;-3.710;2023-05-19T03:40:57;12.90;40.70
40630;DHT22;26329;40.388;-3.710;2023-05-19T03:50:58;13.00;40.70
40630;DHT22;26329;40.388;-3.710;2023-05-19T04:00:59;13.00;40.50
40630;DHT22;26329;40.388;-3.710;2023-05-19T04:10:59;12.90;40.60
40630;DHT22;26329;40.388;-3.710;2023-05-19T04:21:00;12.90;40.70
40630;DHT22;26329;40.388;-3.710;2023-05-19T04:31:01;12.90;40.50
40630;DHT22;26329;40.388;-3.710;2023-05-19T04:41:03;12.80;41.00
40630;DHT22;26329;40.388;-3.710;2023-05-19T04:51:04;12.60;41.40
40630;DHT22;26329;40.388;-3.710;2023-05-19T05:01:04;12.50;41.80
40630;DHT22;26329;40.388;-3.710;2023-05-19T05:11:05;12.60;41.90
40630;DHT22;26329;40.388;-3.710;2023-05-19T05:21:07;12.40;42.40
40630;DHT22;26329;40.388;-3.710;2023-05-19T05:31:07;12.50;42.50
40630;DHT22;26329;40.388;-3.710;2023-05-19T05:41:08;12.40;42.60
40630;DHT22;26329;40.388;-3.710;2023-05-19T05:51:09;12.30;43.00
40630;DHT22;26329;40.388;-3.710;2023-05-19T06:01:10;12.50;43.00
40630;DHT22;26329;40.388;-3.710;2023-05-19T06:11:11;12.60;42.80
40630;DHT22;26329;40.388;-3.710;2023-05-19T06:21:12;12.70;42.70
40630;DHT22;26329;40.388;-3.710;2023-05-19T06:31:13;12.70;43.60
40630;DHT22;26329;40.388;-3.710;2023-05-19T06:41:13;12.90;43.60
40630;DHT22;26329;40.388;-3.710;2023-05-19T06:51:14;13.20;43.80
40630;DHT22;26329;40.388;-3.710;2023-05-19T07:01:20;13.90;42.10
40630;DHT22;26329;40.388;-3.710;2023-05-19T07:11:21;14.30;40.80
40630;DHT22;26329;40.388;-3.710;2023-05-19T07:21:22;14.70;40.50
40630;DHT22;26329;40.388;-3.710;2023-05-19T07:31:23;15.10;39.70
40630;DHT22;26329;40.388;-3.710;2023-05-19T07:41:23;15.60;39.20
40630;DHT22;26329;40.388;-3.710;2023-05-19T07:51:24;15.80;38.50
40630;DHT22;26329;40.388;-3.710;2023-05-19T08:01:25;16.00;38.00
40630;DHT22;26329;40.388;-3.710;2023-05-19T08:11:26;16.10;37.70
40630;DHT22;26329;40.388;-3.710;2023-05-19T08:21:27;16.40;37.30
40630;DHT22;26329;40.388;-3.710;2023-05-19T08:31:28;16.70;37.60
40630;DHT22;26329;40.388;-3.710;2023-05-19T08:41:29;17.30;36.90
40630;DHT22;26329;40.388;-3.710;2023-05-19T09:02:03;18.10;35.50
40630;DHT22;26329;40.388;-3.710;2023-05-19T09:12:04;18.00;35.10
40630;DHT22;26329;40.388;-3.710;2023-05-19T09:22:05;18.20;34.90
40630;DHT22;26329;40.388;-3.710;2023-05-19T09:32:06;18.20;34.50
40630;DHT22;26329;40.388;-3.710;2023-05-19T09:42:07;18.30;34.70
40630;DHT22;26329;40.388;-3.710;2023-05-19T09:52:08;18.40;33.80
40630;DHT22;26329;40.388;-3.710;2023-05-19T10:02:15;18.80;34.10
40630;DHT22;26329;40.388;-3.710;2023-05-19T10:12:17;18.90;34.00
40630;DHT22;26329;40.388;-3.710;2023-05-19T10:22:36;19.10;33.10
40630;DHT22;26329;40.388;-3.710;2023-05-19T10:32:39;19.60;32.10
40630;DHT22;26329;40.388;-3.710;2023-05-19T10:43:00;19.00;32.60
40630;DHT22;26329;40.388;-3.710;2023-05-19T10:53:03;19.00;31.90
40630;DHT22;26329;40.388;-3.710;2023-05-19T11:03:14;19.30;31.70
40630;DHT22;26329;40.388;-3.710;2023-05-19T11:13:19;19.10;31.70
40630;DHT22;26329;40.388;-3.710;2023-05-19T11:23:24;19.00;31.70
40630;DHT22;26329;40.388;-3.710;2023-05-19T11:33:25;18.40;32.50
40630;DHT22;26329;40.388;-3.710;2023-05-19T11:43:26;18.70;31.90
40630;DHT22;26329;40.388;-3.710;2023-05-19T11:53:27;19.30;31.00
40630;DHT22;26329;40.388;-3.710;2023-05-19T12:03:31;19.30;29.90
40630;DHT22;26329;40.388;-3.710;2023-05-19T12:13:32;19.40;30.00
40630;DHT22;26329;40.388;-3.710;2023-05-19T12:23:33;20.00;29.30
40630;DHT22;26329;40.388;-3.710;2023-05-19T12:33:34;20.20;28.30
40630;DHT22;26329;40.388;-3.710;2023-05-19T12:43:35;20.00;27.60
40630;DHT22;26329;40.388;-3.710;2023-05-19T12:53:37;20.00;27.70
40630;DHT22;26329;40.388;-3.710;2023-05-19T13:03:40;20.10;27.10
40630;DHT22;26329;40.388;-3.710;2023-05-19T13:13:42;20.20;26.90
40630;DHT22;26329;40.388;-3.710;2023-05-19T13:23:43;20.20;26.30
40630;DHT22;26329;40.388;-3.710;2023-05-19T13:33:43;20.30;25.70
40630;DHT22;26329;40.388;-3.710;2023-05-19T13:43:44;20.50;25.90
40630;DHT22;26329;40.388;-3.710;2023-05-19T13:53:45;20.30;26.20
40630;DHT22;26329;40.388;-3.710;2023-05-19T14:03:45;20.60;25.30
40630;DHT22;26329;40.388;-3.710;2023-05-19T14:13:47;20.80;24.30
40630;DHT22;26329;40.388;-3.710;2023-05-19T14:23:48;20.80;24.40
40630;DHT22;26329;40.388;-3.710;2023-05-19T14:33:50;21.00;24.00
40630;DHT22;26329;40.388;-3.710;2023-05-19T14:43:50;21.00;24.10
40630;DHT22;26329;40.388;-3.710;2023-05-19T14:53:51;21.10;24.50
40630;DHT22;26329;40.388;-3.710;2023-05-19T15:03:52;21.20;24.20
40630;DHT22;26329;40.388;-3.710;2023-05-19T15:13:52;21.40;24.20
40630;DHT22;26329;40.388;-3.710;2023-05-19T15:23:53;21.40;23.60
40630;DHT22;26329;40.388;-3.710;2023-05-19T15:33:54;21.50;23.80
40630;DHT22;26329;40.388;-3.710;2023-05-19T15:43:55;21.70;23.20
40630;DHT22;26329;40.388;-3.710;2023-05-19T15:53:55;21.60;23.10
40630;DHT22;26329;40.388;-3.710;2023-05-19T16:03:56;21.80;22.60
40630;DHT22;26329;40.388;-3.710;2023-05-19T16:13:57;21.70;22.50
40630;DHT22;26329;40.388;-3.710;2023-05-19T16:23:58;21.30;23.30
40630;DHT22;26329;40.388;-3.710;2023-05-19T16:33:58;21.30;23.60
40630;DHT22;26329;40.388;-3.710;2023-05-19T16:43:59;21.30;24.40
40630;DHT22;26329;40.388;-3.710;2023-05-19T16:54:01;21.20;23.80
40630;DHT22;26329;40.388;-3.710;2023-05-19T17:04:02;21.10;25.30
40630;DHT22;26329;40.388;-3.710;2023-05-19T17:14:03;20.80;27.50
40630;DHT22;26329;40.388;-3.710;2023-05-19T17:24:07;20.80;27.40
40630;DHT22;26329;40.388;-3.710;2023-05-19T17:34:07;20.60;27.90
40630;DHT22;26329;40.388;-3.710;2023-05-19T17:44:08;20.80;27.30
40630;DHT22;26329;40.388;-3.710;2023-05-19T17:54:09;20.70;27.70
40630;DHT22;26329;40.388;-3.710;2023-05-19T18:04:10;20.80;27.80
40630;DHT22;26329;40.388;-3.710;2023-05-19T18:14:11;20.60;28.20
40630;DHT22;26329;40.388;-3.710;2023-05-19T18:24:12;20.50;28.10
40630;DHT22;26329;40.388;-3.710;2023-05-19T18:34:12;20.20;28.80
40630;DHT22;26329;40.388;-3.710;2023-05-19T18:44:14;20.20;28.90
40630;DHT22;26329;40.388;-3.710;2023-05-19T18:54:14;20.10;28.90
40630;DHT22;26329;40.388;-3.710;2023-05-19T19:04:15;19.70;29.20
40630;DHT22;26329;40.388;-3.710;2023-05-19T19:14:16;19.60;29.40
40630;DHT22;26329;40.388;-3.710;2023-05-19T19:24:18;19.50;29.70
40630;DHT22;26329;40.388;-3.710;2023-05-19T19:34:19;19.30;30.00
40630;DHT22;26329;40.388;-3.710;2023-05-19T19:44:20;19.10;30.30
40630;DHT22;26329;40.388;-3.710;2023-05-19T19:54:24;19.00;30.60
40630;DHT22;26329;40.388;-3.710;2023-05-19T20:04:25;18.90;30.90
40630;DHT22;26329;40.388;-3.710;2023-05-19T20:14:26;18.60;31.30
40630;DHT22;26329;40.388;-3.710;2023-05-19T20:24:27;18.50;31.40
40630;DHT22;26329;40.388;-3.710;2023-05-19T20:34:27;18.40;31.30
40630;DHT22;26329;40.388;-3.710;2023-05-19T20:44:28;18.10;31.60
40630;DHT22;26329;40.388;-3.710;2023-05-19T20:54:29;18.00;31.80
40630;DHT22;26329;40.388;-3.710;2023-05-19T21:04:29;17.90;32.00
40630;DHT22;26329;40.388;-3.710;2023-05-19T21:14:32;17.80;32.10
40630;DHT22;26329;40.388;-3.710;2023-05-19T21:24:32;17.60;31.80
40630;DHT22;26329;40.388;-3.710;2023-05-19T21:34:33;17.50;31.60
40630;DHT22;26329;40.388;-3.710;2023-05-19T21:44:34;17.30;31.40
40630;DHT22;26329;40.388;-3.710;2023-05-19T21:54:35;17.20;30.70
40630;DHT22;26329;40.388;-3.710;2023-05-19T22:04:35;16.80;31.20
40630;DHT22;26329;40.388;-3.710;2023-05-19T22:14:37;16.80;31.40
40630;DHT22;26329;40.388;-3.710;2023-05-19T22:24:38;16.60;31.50
40630;DHT22;26329;40.388;-3.710;2023-05-19T22:34:39;16.60;31.20
40630;DHT22;26329;40.388;-3.710;2023-05-19T22:44:42;16.30;31.80
40630;DHT22;26329;40.388;-3.710;2023-05-19T22:54:43;16.20;32.30
40630;DHT22;26329;40.388;-3.710;2023-05-19T23:04:43;15.90;32.00
40630;DHT22;26329;40.388;-3.710;2023-05-19T23:14:44;15.80;32.40
40630;DHT22;26329;40.388;-3.710;2023-05-19T23:24:45;15.40;32.90
40630;DHT22;26329;40.388;-3.710;2023-05-19T23:34:46;15.30;33.40
40630;DHT22;26329;40.388;-3.710;2023-05-19T23:44:48;15.10;33.80
40630;DHT22;26329;40.388;-3.710;2023-05-19T23:54:48;14.90;34.10
